Search for airport 
image banner adimage banner adimage banner ad
image banner ad

1L4 - Kidwell

Located in Cal Nev Ari, United States

ICAO - 1L4, IATA -

Data provided by Airmate  

General information

Coordinates: N35°18'20" W114°52'58"
Elevation is 2605 feet MSL.
Magnetic variation is 14° East
View others Airports in Nevada

Operational data

Special qualification required
Current time UTC:
Current local time:
Weather at : KIFP - Laughlin/Bullhead Intl ( 34 km )
METAR: KIFP 131115Z AUTO 00000KT 10SM CLR 25/M09 A2972 RMK AO2
TAF: KIFP 130520Z 1306/1406 VRB05KT P6SM FEW250 FM131900 19015G24KT P6SM SKC FM140300 17010KT P6SM SKC
View NOTAMs / SUP AIP / TFR affecting this airport [VIEW]
Communications frequencies: [VIEW]

Runways:

RWY identifierQFULength (ft)Width (ft)SurfaceLDA (ft)
15414065OTHER
33414065OTHER

Airport contact information

Address: Cal Nev Ari United States

Satellite view of 1L4